Terminal Aerodrome Forecast
Issued by NWS

Home | Current Version | Previous Version | Text Only | Print | Product List | Glossary On
Versions: 1 2 3 4 5 6 7 8 9 10 11 12 13 14 15 16 17 18 19 20 21 22 23 24 25
000
FTUS46 KOTX 300520
TAFCOE
TAF
KCOE 300520Z 3006/0106 18011KT P6SM SCT040 BKN080 OVC100
     FM300900 21011KT P6SM -SHRA SCT025 BKN040 OVC060
     FM301800 22016G22KT P6SM VCSH SCT035 BKN060 BKN100
     FM010000 22009KT P6SM SCT050 SCT080
      AMD LTD TO CLD AND VIS=

USA.gov is the U.S. government's official web portal to all federal, state and local government web resources and services.